Terminal Aerodrome Forecast
Issued by NWS

Home | Current Version | Previous Version | Text Only | Print | Product List | Glossary On
Versions: 1 2 3 4 5 6 7 8 9 10 11 12 13 14 15
000
FTUS42 KFFC 271220 AAA
TAFFTY
TAF AMD
KFTY 271220Z 2712/2812 00000KT P6SM SCT015 BKN250
      TEMPO 2712/2714 BKN015
     FM271500 35010KT P6SM SCT045 SCT200
     FM280200 35005KT P6SM BKN120
     FM280700 03005KT P6SM BKN120=

USA.gov is the U.S. government's official web portal to all federal, state and local government web resources and services.